Time;durP1;ratioP1;P1;durP2;ratioP2;P2;SDS_P1;SDS_P2;PMS_P1;PMS_P2;Temp;Humidity;BMP_temperature;BMP_pressure;BME280_temperature;BME280_humidity;BME280_pressure;Samples;Min_cycle;Max_cycle;Signal;HPM_P1;HPM_P2
2021/11/16 00:00:15;;;;;;;60.20;19.53;;;3.30;97.30;;;;;;5048969;28;20418;-91
2021/11/16 00:02:41;;;;;;;62.73;18.93;;;3.30;97.30;;;;;;5056672;28;20525;-93
2021/11/16 00:05:08;;;;;;;60.13;18.17;;;3.30;97.30;;;;;;5054453;28;20438;-93
2021/11/16 00:07:34;;;;;;;69.20;18.47;;;3.20;97.30;;;;;;5056369;28;20947;-93
2021/11/16 00:09:59;;;;;;;74.90;20.23;;;3.20;97.30;;;;;;5057446;28;20418;-93
2021/11/16 00:12:28;;;;;;;67.37;19.27;;;3.20;97.30;;;;;;5057561;28;20735;-93
2021/11/16 00:15:14;;;;;;;58.70;19.73;;;3.10;97.30;;;;;;5056454;28;20207;-93
2021/11/16 00:17:39;;;;;;;69.80;19.07;;;3.10;97.30;;;;;;5055455;28;20450;-92
2021/11/16 00:20:10;;;;;;;81.40;24.60;;;3.10;97.30;;;;;;5055401;28;20928;-93
2021/11/16 00:22:38;;;;;;;69.60;23.53;;;3.20;97.30;;;;;;5054592;28;20250;-92
2021/11/16 00:25:18;;;;;;;64.70;21.40;;;3.20;97.30;;;;;;5054322;28;20435;-93
2021/11/16 00:27:45;;;;;;;77.43;19.90;;;3.30;97.30;;;;;;5055090;28;20425;-93
2021/11/16 00:30:15;;;;;;;79.87;23.70;;;3.30;97.30;;;;;;5055952;28;20871;-92
2021/11/16 00:32:42;;;;;;;81.07;22.63;;;3.40;97.30;;;;;;5054511;28;20418;-93
2021/11/16 00:35:08;;;;;;;65.80;22.27;;;3.40;97.30;;;;;;5038418;28;20438;-93
2021/11/16 00:37:34;;;;;;;75.27;24.23;;;3.50;97.30;;;;;;5055243;28;20454;-92
2021/11/16 00:40:07;;;;;;;81.73;22.90;;;3.50;97.30;;;;;;5055598;28;20942;-93
2021/11/16 00:42:33;;;;;;;68.63;23.47;;;3.60;97.30;;;;;;5055380;28;20179;-92
2021/11/16 00:44:58;;;;;;;87.63;24.17;;;3.60;97.30;;;;;;5053525;28;20528;-92
2021/11/16 00:47:24;;;;;;;84.50;24.80;;;3.60;97.30;;;;;;5053531;28;20172;-93
2021/11/16 00:49:53;;;;;;;89.97;27.13;;;3.60;97.30;;;;;;5053078;28;20646;-93
2021/11/16 00:52:19;;;;;;;90.20;25.63;;;3.70;97.30;;;;;;5053423;28;20667;-93
2021/11/16 00:54:48;;;;;;;97.23;24.40;;;3.70;97.30;;;;;;5053423;28;20414;-92
2021/11/16 00:57:14;;;;;;;99.30;26.17;;;3.70;97.30;;;;;;5054361;28;20476;-94
2021/11/16 00:59:40;;;;;;;105.07;28.60;;;3.80;97.30;;;;;;5054198;28;20419;-93
2021/11/16 01:02:05;;;;;;;96.00;25.77;;;3.80;97.30;;;;;;5054085;28;20564;-93
2021/11/16 01:04:34;;;;;;;99.27;26.60;;;3.80;97.30;;;;;;5054896;28;20180;-92
2021/11/16 01:07:00;;;;;;;102.00;26.57;;;3.80;97.30;;;;;;5055262;28;20643;-92
2021/11/16 01:09:28;;;;;;;94.37;23.70;;;3.80;97.30;;;;;;5054566;28;20450;-92
2021/11/16 01:11:54;;;;;;;101.97;25.63;;;3.80;97.30;;;;;;5055007;28;20407;-92
2021/11/16 01:14:19;;;;;;;113.27;27.80;;;3.80;97.30;;;;;;5052822;28;20421;-93
2021/11/16 01:16:45;;;;;;;108.43;28.43;;;3.90;97.30;;;;;;5054986;28;20341;-93
2021/11/16 01:19:14;;;;;;;96.57;25.80;;;3.90;97.30;;;;;;5056548;28;20333;-92
2021/11/16 01:21:40;;;;;;;91.03;27.73;;;3.90;97.30;;;;;;5056450;28;20176;-93
2021/11/16 01:24:09;;;;;;;122.17;29.77;;;3.90;97.30;;;;;;5057328;28;20421;-93
2021/11/16 01:26:35;;;;;;;105.80;28.37;;;3.90;97.30;;;;;;5057367;28;20434;-92
2021/11/16 01:29:02;;;;;;;112.60;29.27;;;3.90;97.30;;;;;;5057736;28;20504;-93
2021/11/16 01:31:28;;;;;;;98.17;28.17;;;3.90;97.30;;;;;;5057689;28;20443;-92
2021/11/16 01:33:57;;;;;;;95.87;29.03;;;3.90;97.30;;;;;;5058186;28;21015;-93
2021/11/16 01:36:23;;;;;;;94.97;27.63;;;3.90;97.30;;;;;;5058786;28;20446;-92
2021/11/16 01:38:51;;;;;;;113.20;27.97;;;3.90;97.30;;;;;;5058097;28;20534;-93
2021/11/16 01:41:18;;;;;;;115.87;30.80;;;3.90;97.30;;;;;;5040412;28;20510;-93
2021/11/16 01:43:44;;;;;;;99.37;27.27;;;3.90;97.30;;;;;;5035705;28;20952;-93
2021/11/16 01:46:15;;;;;;;99.80;28.27;;;3.90;97.30;;;;;;5035991;28;20435;-91
2021/11/16 01:48:43;;;;;;;99.57;28.40;;;3.90;97.30;;;;;;5035988;28;20446;-93
2021/11/16 01:51:09;;;;;;;105.30;27.60;;;3.90;97.30;;;;;;5036366;28;20420;-92
2021/11/16 01:53:36;;;;;;;111.53;28.27;;;3.90;97.30;;;;;;5036786;28;20422;-92
2021/11/16 01:56:02;;;;;;;108.17;26.63;;;3.90;97.30;;;;;;5036949;28;20471;-92
2021/11/16 01:58:28;;;;;;;107.37;28.80;;;3.90;97.30;;;;;;5036625;28;20463;-93
2021/11/16 02:00:54;;;;;;;90.30;25.27;;;3.90;97.30;;;;;;5038262;28;20980;-90
2021/11/16 02:03:23;;;;;;;99.80;29.00;;;3.90;97.30;;;;;;5038085;28;20169;-92
2021/11/16 02:05:54;;;;;;;103.63;26.97;;;3.90;97.30;;;;;;5037591;28;20485;-92
2021/11/16 02:08:23;;;;;;;93.77;26.70;;;3.90;97.30;;;;;;5037884;28;20419;-93
2021/11/16 02:10:53;;;;;;;99.43;26.77;;;3.90;97.30;;;;;;5036104;28;20476;-92
2021/11/16 02:13:20;;;;;;;116.30;25.97;;;3.90;97.30;;;;;;5036357;28;20451;-93
2021/11/16 02:15:53;;;;;;;95.67;24.00;;;3.90;97.30;;;;;;5035598;28;21044;-93
2021/11/16 02:18:24;;;;;;;85.90;23.70;;;3.90;97.30;;;;;;5036073;28;20458;-92
2021/11/16 02:20:51;;;;;;;89.30;22.37;;;3.90;97.30;;;;;;5035913;28;20407;-92
2021/11/16 02:23:17;;;;;;;97.73;24.60;;;3.80;97.30;;;;;;5036851;28;20412;-92
2021/11/16 02:25:45;;;;;;;87.07;23.37;;;3.90;97.30;;;;;;5038222;28;20431;-92
2021/11/16 02:28:13;;;;;;;111.63;28.10;;;3.90;97.30;;;;;;5036142;28;20434;-92
2021/11/16 02:30:39;;;;;;;108.73;25.40;;;3.90;97.30;;;;;;5037627;28;20446;-92
2021/11/16 02:33:05;;;;;;;98.47;24.10;;;3.90;97.30;;;;;;5037383;28;20420;-93
2021/11/16 02:35:34;;;;;;;109.60;26.80;;;3.90;97.30;;;;;;5038698;28;20275;-93
2021/11/16 02:38:00;;;;;;;105.83;26.40;;;3.90;97.30;;;;;;5035535;28;20217;-93
2021/11/16 02:40:32;;;;;;;108.03;25.20;;;3.90;97.30;;;;;;5035612;28;20789;-93
2021/11/16 02:42:58;;;;;;;112.77;26.83;;;3.90;97.30;;;;;;5034813;28;20412;-92
2021/11/16 02:45:24;;;;;;;102.97;26.97;;;3.90;97.30;;;;;;5035085;28;20557;-92
2021/11/16 02:47:53;;;;;;;94.60;26.40;;;4.00;97.30;;;;;;5035204;28;20176;-92
2021/11/16 02:50:19;;;;;;;103.03;26.93;;;4.00;97.30;;;;;;5035733;28;20461;-92
2021/11/16 02:52:45;;;;;;;104.53;29.97;;;4.00;97.30;;;;;;5035760;28;20441;-93
2021/11/16 02:55:15;;;;;;;97.83;24.70;;;4.10;97.30;;;;;;5036088;28;20467;-93
2021/11/16 02:57:44;;;;;;;105.83;23.90;;;4.10;97.30;;;;;;5036547;28;20295;-92
2021/11/16 03:00:15;;;;;;;112.67;30.50;;;4.10;97.30;;;;;;5036636;28;20914;-92
2021/11/16 03:02:47;;;;;;;93.73;25.03;;;4.10;97.30;;;;;;5036875;28;20420;-92
2021/11/16 03:05:12;;;;;;;99.10;26.63;;;4.10;97.30;;;;;;5037111;28;20440;-92
2021/11/16 03:07:45;;;;;;;102.73;28.23;;;4.10;97.30;;;;;;5035077;28;20769;-93
2021/11/16 03:10:18;;;;;;;108.50;27.03;;;4.00;97.30;;;;;;5034912;28;20438;-92
2021/11/16 03:12:44;;;;;;;102.33;24.80;;;4.00;97.30;;;;;;5034525;28;20909;-92
2021/11/16 03:15:10;;;;;;;107.87;25.30;;;4.00;97.30;;;;;;5034597;28;20466;-92
2021/11/16 03:17:36;;;;;;;108.27;28.73;;;4.00;97.30;;;;;;5035438;28;20200;-92
2021/11/16 03:20:14;;;;;;;125.63;25.80;;;4.00;97.30;;;;;;5035319;28;20267;-92
2021/11/16 03:23:08;;;;;;;112.37;26.37;;;4.00;97.30;;;;;;5036455;28;20412;-92
2021/11/16 03:25:37;;;;;;;87.93;24.60;;;4.10;97.30;;;;;;5036811;28;20435;-92
2021/11/16 03:28:07;;;;;;;100.93;24.17;;;4.10;97.30;;;;;;5036379;28;20426;-93
2021/11/16 03:30:34;;;;;;;109.97;28.80;;;4.00;97.30;;;;;;5036606;28;20505;-93
2021/11/16 03:33:00;;;;;;;90.67;26.47;;;4.10;97.30;;;;;;5036098;28;20419;-93
2021/11/16 03:35:25;;;;;;;98.40;27.33;;;4.10;97.30;;;;;;5034767;28;20439;-92
2021/11/16 03:37:58;;;;;;;96.30;24.10;;;4.10;97.30;;;;;;5034324;28;20466;-93
2021/11/16 03:40:24;;;;;;;100.23;27.33;;;4.10;97.30;;;;;;5033960;28;20785;-93
2021/11/16 03:42:51;;;;;;;85.90;27.37;;;4.10;97.30;;;;;;5034760;28;20420;-91
2021/11/16 03:45:24;;;;;;;92.57;25.20;;;4.00;97.30;;;;;;5034236;28;20438;-88
2021/11/16 03:47:51;;;;;;;97.73;24.80;;;4.00;97.30;;;;;;5034567;28;20415;-90
2021/11/16 03:50:23;;;;;;;112.97;27.30;;;4.00;97.30;;;;;;5034967;28;20416;-89
2021/11/16 03:52:53;;;;;;;88.93;26.93;;;4.00;97.30;;;;;;5034469;28;20419;-90
2021/11/16 03:55:19;;;;;;;97.77;27.80;;;4.10;97.30;;;;;;5035517;28;20473;-88
2021/11/16 03:57:45;;;;;;;94.80;25.53;;;4.00;97.30;;;;;;5035724;28;20452;-89
2021/11/16 04:00:18;;;;;;;91.47;27.00;;;4.00;97.30;;;;;;5036243;28;20706;-90
2021/11/16 04:02:44;;;;;;;94.47;24.43;;;4.00;97.30;;;;;;5033950;28;20411;-89
2021/11/16 04:05:13;;;;;;;97.57;25.20;;;4.00;97.30;;;;;;5032721;28;20474;-89
2021/11/16 04:07:40;;;;;;;93.37;25.50;;;4.00;97.30;;;;;;5033325;28;20419;-90
2021/11/16 04:10:13;;;;;;;104.30;25.80;;;4.00;97.30;;;;;;5033328;28;20927;-89
2021/11/16 04:12:43;;;;;;;91.87;29.77;;;4.00;97.30;;;;;;5034120;28;20899;-89
2021/11/16 04:15:10;;;;;;;96.77;24.33;;;4.00;97.30;;;;;;5033719;28;20435;-90
2021/11/16 04:17:40;;;;;;;103.60;24.70;;;4.00;97.30;;;;;;5034070;28;20457;-89
2021/11/16 04:20:11;;;;;;;96.83;25.40;;;4.00;97.30;;;;;;5034326;28;20913;-89
2021/11/16 04:22:37;;;;;;;105.73;26.13;;;3.90;97.30;;;;;;5034416;28;20802;-89
2021/11/16 04:25:05;;;;;;;95.03;24.27;;;3.90;97.30;;;;;;5034462;28;20438;-90
2021/11/16 04:27:30;;;;;;;89.23;23.90;;;3.90;97.30;;;;;;5034603;28;20187;-89
2021/11/16 04:29:56;;;;;;;80.87;23.40;;;3.90;97.30;;;;;;5034300;28;20419;-89
2021/11/16 04:32:22;;;;;;;88.30;26.40;;;3.90;97.30;;;;;;5033595;28;20463;-89
2021/11/16 04:34:48;;;;;;;87.30;24.57;;;3.90;97.30;;;;;;5032383;28;20176;-89
2021/11/16 04:37:14;;;;;;;116.40;25.30;;;3.90;97.30;;;;;;5032950;28;20204;-89
2021/11/16 04:39:39;;;;;;;97.53;24.80;;;3.90;97.30;;;;;;5032696;28;20183;-89
2021/11/16 04:42:05;;;;;;;103.07;25.27;;;3.90;97.30;;;;;;5033090;28;20832;-89
2021/11/16 04:44:31;;;;;;;102.03;24.57;;;3.90;97.30;;;;;;5033458;28;20188;-90
2021/11/16 04:47:00;;;;;;;111.30;26.67;;;3.90;97.30;;;;;;5033717;28;20230;-89
2021/11/16 05:02:35;;;;;;;99.90;24.47;;;3.90;97.30;;;;;;5037787;28;20903;-88
2021/11/16 05:05:11;;;;;;;92.63;24.97;;;3.90;97.30;;;;;;5036580;28;20724;-89
2021/11/16 05:07:41;;;;;;;100.50;24.53;;;3.90;97.30;;;;;;5037416;28;20790;-89
2021/11/16 05:10:07;;;;;;;112.50;24.73;;;3.90;97.30;;;;;;5037456;28;20439;-89
2021/11/16 05:12:33;;;;;;;103.60;27.10;;;3.90;97.30;;;;;;5038031;28;20419;-89
2021/11/16 05:15:04;;;;;;;116.87;25.63;;;3.90;97.30;;;;;;5037342;28;20430;-89
2021/11/16 05:17:29;;;;;;;97.33;27.30;;;3.90;97.30;;;;;;5038304;28;20494;-90
2021/11/16 05:19:55;;;;;;;103.93;26.40;;;4.00;97.30;;;;;;5038452;28;20419;-89
2021/11/16 05:22:22;;;;;;;118.67;28.40;;;4.00;97.30;;;;;;5038290;28;20276;-90
2021/11/16 05:24:47;;;;;;;103.57;26.67;;;4.00;97.30;;;;;;5038962;28;20632;-89
2021/11/16 05:27:14;;;;;;;96.67;24.80;;;4.00;97.30;;;;;;5037053;28;20419;-88
2021/11/16 05:29:40;;;;;;;97.87;27.07;;;4.00;97.30;;;;;;5036347;28;20639;-91
2021/11/16 05:32:09;;;;;;;99.77;26.70;;;4.00;97.30;;;;;;5036808;28;20423;-88
2021/11/16 05:34:35;;;;;;;112.83;25.37;;;4.00;97.30;;;;;;5036185;28;20419;-89
2021/11/16 05:37:00;;;;;;;108.77;27.60;;;4.00;97.30;;;;;;5037150;28;20415;-90
2021/11/16 05:39:26;;;;;;;117.77;30.87;;;4.00;97.30;;;;;;5036452;28;20236;-89
2021/11/16 05:41:52;;;;;;;116.70;27.83;;;4.00;97.30;;;;;;5037140;28;20180;-91
2021/11/16 05:44:18;;;;;;;85.47;25.40;;;4.00;97.30;;;;;;5038693;28;20177;-92
2021/11/16 05:46:43;;;;;;;115.90;27.47;;;4.00;97.30;;;;;;5039298;28;20200;-92
2021/11/16 05:49:09;;;;;;;94.73;25.53;;;4.00;97.30;;;;;;5039810;28;20419;-91
2021/11/16 05:51:36;;;;;;;111.40;24.30;;;4.00;97.30;;;;;;5039761;28;20184;-91
2021/11/16 05:54:02;;;;;;;96.63;25.50;;;4.00;97.30;;;;;;5038965;28;20263;-92
2021/11/16 05:56:31;;;;;;;94.63;23.20;;;4.00;97.30;;;;;;5036904;28;20474;-92
2021/11/16 05:58:57;;;;;;;114.27;29.03;;;4.00;97.30;;;;;;5037311;28;20531;-92
2021/11/16 06:01:33;;;;;;;85.90;26.53;;;4.00;97.30;;;;;;5036783;28;20506;-92
2021/11/16 06:03:59;;;;;;;94.20;25.10;;;4.00;97.30;;;;;;5036672;28;20427;-92
2021/11/16 06:06:30;;;;;;;102.50;24.90;;;4.10;97.30;;;;;;5038137;28;20501;-92
2021/11/16 06:09:03;;;;;;;102.73;27.40;;;4.10;97.30;;;;;;5038394;28;20419;-92
2021/11/16 06:11:30;;;;;;;100.50;26.57;;;4.00;97.30;;;;;;5038163;28;20422;-92
2021/11/16 06:13:58;;;;;;;89.07;23.37;;;4.00;97.30;;;;;;5038392;28;20841;-92
2021/11/16 06:16:24;;;;;;;101.40;24.33;;;4.00;97.30;;;;;;5039096;28;20443;-92
2021/11/16 06:18:55;;;;;;;93.03;25.10;;;4.00;97.30;;;;;;5038937;28;20463;-92
2021/11/16 06:21:23;;;;;;;105.10;26.73;;;4.00;97.30;;;;;;5038687;28;20475;-93
2021/11/16 06:23:58;;;;;;;100.90;24.73;;;4.00;97.30;;;;;;5051144;28;20421;-93
2021/11/16 06:26:25;;;;;;;93.10;24.40;;;3.90;97.30;;;;;;5057648;28;20430;-93
2021/11/16 06:28:54;;;;;;;104.57;25.43;;;3.90;97.30;;;;;;5044230;28;20424;-93
2021/11/16 06:31:23;;;;;;;99.10;26.33;;;3.90;97.30;;;;;;5048248;28;20475;-93
2021/11/16 06:33:49;;;;;;;102.97;26.37;;;3.90;97.30;;;;;;5047027;28;20924;-93
2021/11/16 06:36:15;;;;;;;93.60;27.53;;;3.90;97.30;;;;;;5041420;28;20439;-93
2021/11/16 06:38:41;;;;;;;79.63;24.07;;;3.90;97.30;;;;;;5050933;28;20196;-93
2021/11/16 06:41:12;;;;;;;95.67;25.10;;;3.90;97.30;;;;;;5044642;28;20407;-93
2021/11/16 06:43:38;;;;;;;97.63;24.57;;;3.90;97.30;;;;;;5039564;28;20639;-93
2021/11/16 06:46:07;;;;;;;115.73;26.60;;;3.90;97.30;;;;;;5047773;28;20427;-93
2021/11/16 06:48:33;;;;;;;97.57;25.50;;;3.90;97.30;;;;;;5041203;28;20215;-93
2021/11/16 06:51:00;;;;;;;98.93;26.40;;;3.90;97.30;;;;;;5036537;28;20537;-93
2021/11/16 06:53:34;;;;;;;94.50;27.60;;;4.00;97.30;;;;;;5036508;28;20477;-95
2021/11/16 06:56:02;;;;;;;95.93;27.10;;;4.00;97.30;;;;;;5040927;28;20485;-93
2021/11/16 06:58:29;;;;;;;94.33;25.83;;;3.90;97.30;;;;;;5055882;28;20883;-92
2021/11/16 07:00:55;;;;;;;92.27;25.57;;;3.90;97.30;;;;;;5048324;28;20442;-91
2021/11/16 07:03:23;;;;;;;114.07;28.47;;;3.90;97.30;;;;;;5049193;28;20804;-91
2021/11/16 07:05:52;;;;;;;103.40;27.10;;;4.00;97.30;;;;;;5043673;28;20501;-91
2021/11/16 07:08:42;;;;;;;;;;;;;;;;;;;;;
2021/11/16 07:11:17;;;;;;;100.47;26.27;;;4.00;97.30;;;;;;5059722;28;20462;-91
2021/11/16 07:14:09;;;;;;;91.00;26.53;;;4.00;97.30;;;;;;5049664;28;20429;-92
2021/11/16 07:16:39;;;;;;;103.53;26.30;;;4.00;97.30;;;;;;5018096;28;20427;-92
2021/11/16 07:19:09;;;;;;;91.60;24.90;;;4.00;97.30;;;;;;5018209;28;20454;-92
2021/11/16 07:21:50;;;;;;;92.90;24.70;;;4.10;97.30;;;;;;5017185;28;20404;-92
2021/11/16 07:24:18;;;;;;;74.43;24.60;;;4.10;97.30;;;;;;5030666;28;20414;-91
2021/11/16 07:26:57;;;;;;;96.37;24.07;;;4.00;97.30;;;;;;5057641;28;20442;-92
2021/11/16 07:29:48;;;;;;;97.97;26.20;;;4.00;97.30;;;;;;5052979;28;21000;-91
2021/11/16 07:35:40;;;;;;;101.03;30.20;;;4.00;97.30;;;;;;5033933;28;20447;-92
2021/11/16 07:38:19;;;;;;;96.13;27.03;;;4.00;97.30;;;;;;5038678;28;21001;-89
2021/11/16 07:40:48;;;;;;;94.93;24.77;;;4.00;97.30;;;;;;5050786;28;20410;-92
2021/11/16 07:43:19;;;;;;;90.10;23.67;;;4.10;97.30;;;;;;5056719;28;20493;-92
2021/11/16 07:45:49;;;;;;;83.23;23.73;;;4.10;97.30;;;;;;5044153;28;20518;-91
2021/11/16 07:48:19;;;;;;;95.53;25.63;;;4.10;97.30;;;;;;5043001;28;20407;-92
2021/11/16 07:50:49;;;;;;;100.53;24.60;;;4.00;97.30;;;;;;5035735;28;20411;-92
2021/11/16 07:53:30;;;;;;;99.40;26.83;;;4.00;97.30;;;;;;5036219;28;20445;-92
2021/11/16 07:56:19;;;;;;;96.97;26.47;;;4.00;97.30;;;;;;5039178;28;20471;-92
2021/11/16 07:59:13;;;;;;;96.43;24.17;;;4.00;97.30;;;;;;5047666;28;20455;-92
2021/11/16 08:02:02;;;;;;;93.23;24.10;;;4.10;97.30;;;;;;5038661;28;20423;-91
2021/11/16 08:04:33;;;;;;;76.57;24.37;;;4.10;97.30;;;;;;5003566;28;20478;-92
2021/11/16 08:09:52;;;;;;;84.00;23.87;;;4.20;97.30;;;;;;5017748;28;21022;-92
2021/11/16 08:12:35;;;;;;;81.47;24.17;;;4.30;97.30;;;;;;5016677;28;20496;-90
2021/11/16 08:15:10;;;;;;;92.47;26.53;;;4.30;97.30;;;;;;5034419;28;20428;-91
2021/11/16 08:17:40;;;;;;;74.47;22.37;;;4.30;97.30;;;;;;5017020;28;20965;-92
2021/11/16 08:20:17;;;;;;;79.33;23.90;;;4.40;97.30;;;;;;5017604;28;20417;-92
2021/11/16 08:22:50;;;;;;;121.17;39.23;;;4.40;97.30;;;;;;5016125;28;20408;-91
2021/11/16 08:25:31;;;;;;;91.87;26.20;;;4.40;97.30;;;;;;5016567;28;20440;-93
2021/11/16 08:27:57;;;;;;;72.67;22.50;;;4.50;97.30;;;;;;5017925;28;20424;-92
2021/11/16 08:30:28;;;;;;;92.53;22.77;;;4.50;97.30;;;;;;5018589;28;20478;-92
2021/11/16 08:32:59;;;;;;;76.10;23.17;;;4.50;97.30;;;;;;5022974;28;20803;-91
2021/11/16 08:35:29;;;;;;;68.17;20.10;;;4.50;97.30;;;;;;5037624;28;20443;-92
2021/11/16 08:38:17;;;;;;;67.73;23.33;;;4.50;97.30;;;;;;5035454;28;20458;-92
2021/11/16 08:41:30;;;;;;;71.80;22.50;;;4.50;97.30;;;;;;5036073;28;20415;-92
2021/11/16 08:44:21;;;;;;;83.73;24.17;;;4.50;97.30;;;;;;5035939;28;20797;-92
2021/11/16 08:46:49;;;;;;;57.67;20.63;;;4.50;97.30;;;;;;5036714;28;20431;-91
2021/11/16 08:49:40;;;;;;;66.40;22.43;;;4.50;97.30;;;;;;5038080;28;20467;-92
2021/11/16 08:52:18;;;;;;;61.30;21.03;;;4.50;97.30;;;;;;5037044;28;20843;-91
2021/11/16 08:55:06;;;;;;;122.90;40.30;;;4.60;97.30;;;;;;5038158;28;20395;-92
2021/11/16 08:57:49;;;;;;;777.40;312.80;;;4.60;97.30;;;;;;5037208;28;20494;-92
2021/11/16 09:00:38;;;;;;;155.50;53.60;;;4.60;97.30;;;;;;5038400;28;20411;-92
2021/11/16 09:04:06;;;;;;;69.60;20.50;;;4.70;97.30;;;;;;5035982;28;20416;-92
2021/11/16 09:06:30;;;;;;;150.73;64.90;;;4.70;97.30;;;;;;5000045;28;20526;-91
2021/11/16 09:09:11;;;;;;;83.67;30.10;;;4.70;97.30;;;;;;5015732;28;20772;-92
2021/11/16 09:11:37;;;;;;;63.97;20.90;;;4.70;97.30;;;;;;5019731;28;20793;-91
2021/11/16 09:14:16;;;;;;;70.67;22.30;;;4.70;97.30;;;;;;5034651;28;20415;-91
2021/11/16 09:16:49;;;;;;;58.63;19.67;;;4.70;97.30;;;;;;5037849;28;20438;-92
2021/11/16 09:19:50;;;;;;;75.60;22.70;;;4.70;97.30;;;;;;5035812;28;20447;-91
2021/11/16 09:22:19;;;;;;;59.90;19.30;;;4.80;97.30;;;;;;5036294;28;21047;-92
2021/11/16 09:24:51;;;;;;;67.53;24.03;;;4.90;97.30;;;;;;5037673;28;20905;-92
2021/11/16 09:27:38;;;;;;;67.80;22.90;;;4.90;97.30;;;;;;5037255;28;20407;-91
2021/11/16 09:30:28;;;;;;;69.63;20.13;;;4.90;97.30;;;;;;5036797;28;20404;-92
2021/11/16 09:33:20;;;;;;;54.83;19.17;;;5.00;97.30;;;;;;5035863;28;20473;-92
2021/11/16 09:35:59;;;;;;;92.50;29.83;;;4.90;97.30;;;;;;5036096;28;20431;-91
2021/11/16 09:38:58;;;;;;;54.37;19.33;;;5.00;97.30;;;;;;5034112;28;20474;-92
2021/11/16 09:41:53;;;;;;;68.13;21.67;;;4.90;97.30;;;;;;5039140;28;20415;-91
2021/11/16 09:47:40;;;;;;;52.30;18.80;;;5.00;97.30;;;;;;5033550;28;20510;-92
2021/11/16 09:50:18;;;;;;;59.97;20.20;;;5.00;97.30;;;;;;5039765;28;20419;-92
2021/11/16 09:52:59;;;;;;;69.17;21.60;;;5.00;97.30;;;;;;5041571;28;20399;-92
2021/11/16 09:55:28;;;;;;;200.90;68.23;;;5.10;97.30;;;;;;5041285;28;20470;-91
2021/11/16 09:58:18;;;;;;;93.60;30.23;;;5.10;97.30;;;;;;5041348;28;20459;-92
2021/11/16 10:00:59;;;;;;;87.03;31.40;;;5.10;97.30;;;;;;5038836;28;20412;-91
2021/11/16 10:03:27;;;;;;;68.27;21.30;;;5.20;97.30;;;;;;5038602;28;20415;-91
2021/11/16 10:06:00;;;;;;;82.00;25.57;;;5.20;97.30;;;;;;5038632;28;20850;-92
2021/11/16 10:08:29;;;;;;;78.20;25.67;;;5.20;97.30;;;;;;5039123;28;20420;-92
2021/11/16 10:10:59;;;;;;;63.70;22.23;;;5.20;97.30;;;;;;5040429;28;20415;-91
2021/11/16 10:13:28;;;;;;;63.50;20.37;;;5.20;97.30;;;;;;5039254;28;20498;-92
2021/11/16 10:15:59;;;;;;;66.27;20.67;;;5.20;97.30;;;;;;5039473;28;20442;-92
2021/11/16 10:18:28;;;;;;;54.03;20.60;;;5.20;97.30;;;;;;5040102;28;20459;-92
2021/11/16 10:20:57;;;;;;;61.93;20.30;;;5.20;97.30;;;;;;5041583;28;20403;-92
2021/11/16 10:23:58;;;;;;;57.73;19.77;;;5.20;97.30;;;;;;5041064;28;20415;-92
2021/11/16 10:26:31;;;;;;;56.90;18.87;;;5.20;97.30;;;;;;5032685;28;20449;-91
2021/11/16 10:28:59;;;;;;;64.13;19.63;;;5.30;97.30;;;;;;5041089;28;20438;-92
2021/11/16 10:31:49;;;;;;;61.07;19.87;;;5.30;97.30;;;;;;5038818;28;20427;-92
2021/11/16 10:34:17;;;;;;;63.70;20.83;;;5.30;97.30;;;;;;5038628;28;20407;-91
2021/11/16 10:37:10;;;;;;;58.63;18.60;;;5.40;97.30;;;;;;5037865;28;20439;-92
2021/11/16 10:39:38;;;;;;;96.80;32.97;;;5.40;97.30;;;;;;5038351;28;21117;-92
2021/11/16 10:42:18;;;;;;;63.43;21.70;;;5.40;97.30;;;;;;5038369;28;20411;-92
2021/11/16 10:44:59;;;;;;;55.80;19.67;;;5.50;97.30;;;;;;5038546;28;20410;-91
2021/11/16 10:47:40;;;;;;;61.27;19.97;;;5.50;97.30;;;;;;5038637;28;20415;-92
2021/11/16 10:50:21;;;;;;;61.17;22.33;;;5.50;97.30;;;;;;5039595;28;20414;-92
2021/11/16 10:53:10;;;;;;;69.37;20.33;;;5.60;97.30;;;;;;5041500;28;20403;-92
2021/11/16 10:55:50;;;;;;;58.10;19.80;;;5.60;97.30;;;;;;5040270;28;20479;-91
2021/11/16 11:01:27;;;;;;;50.20;18.23;;;5.70;97.30;;;;;;5033094;28;20917;-91
2021/11/16 11:04:00;;;;;;;64.43;20.83;;;5.80;97.30;;;;;;5039024;28;20937;-92
2021/11/16 11:06:39;;;;;;;59.60;19.50;;;5.90;97.30;;;;;;5038867;28;20434;-92
2021/11/16 11:09:07;;;;;;;56.23;20.00;;;6.00;97.30;;;;;;5038234;28;20454;-92
2021/11/16 11:11:37;;;;;;;59.00;20.63;;;6.00;97.30;;;;;;5038662;28;20423;-91
2021/11/16 11:14:16;;;;;;;59.10;19.90;;;6.10;97.30;;;;;;5039645;28;20427;-92
2021/11/16 11:20:28;;;;;;;58.30;21.03;;;6.20;97.30;;;;;;5036304;28;20423;-92
2021/11/16 11:22:57;;;;;;;64.70;19.07;;;6.30;97.30;;;;;;5039572;28;20407;-92
2021/11/16 11:28:30;;;;;;;61.40;20.30;;;6.40;97.30;;;;;;5040859;28;20767;-92
2021/11/16 11:30:47;;;;;;;65.53;20.70;;;6.50;97.30;;;;;;5039376;28;20415;-92
2021/11/16 11:33:20;;;;;;;53.70;18.63;;;6.50;97.30;;;;;;5037344;28;20498;-92
2021/11/16 11:35:48;;;;;;;67.73;22.23;;;6.50;97.30;;;;;;5038531;28;20196;-91
2021/11/16 11:38:18;;;;;;;63.80;22.03;;;6.50;97.30;;;;;;5038747;28;20497;-92
2021/11/16 11:40:56;;;;;;;61.30;20.17;;;6.50;97.30;;;;;;5038343;28;20430;-92
2021/11/16 11:43:30;;;;;;;57.40;21.37;;;6.50;97.30;;;;;;5038458;28;20407;-93
2021/11/16 11:45:58;;;;;;;56.93;20.60;;;6.50;97.30;;;;;;5038605;28;20431;-92
2021/11/16 11:48:27;;;;;;;55.13;18.77;;;6.40;97.30;;;;;;5038239;28;20796;-92
2021/11/16 11:50:59;;;;;;;65.23;21.67;;;6.40;97.30;;;;;;5039688;28;20767;-92
2021/11/16 11:53:30;;;;;;;61.33;20.80;;;6.50;97.30;;;;;;5039781;28;20417;-92
2021/11/16 11:56:18;;;;;;;57.03;19.97;;;6.50;97.30;;;;;;5040090;28;20582;-92
2021/11/16 11:58:47;;;;;;;72.10;20.27;;;6.50;97.30;;;;;;5039477;28;20501;-91
2021/11/16 12:01:21;;;;;;;59.00;18.77;;;6.50;97.30;;;;;;5037751;28;20408;-92
2021/11/16 12:03:47;;;;;;;54.67;19.10;;;6.50;97.30;;;;;;5037947;28;20495;-92
2021/11/16 12:06:16;;;;;;;58.83;18.47;;;6.50;97.30;;;;;;5038128;28;20938;-92
2021/11/16 12:08:50;;;;;;;66.50;21.00;;;6.40;97.30;;;;;;5037564;28;20553;-92
2021/11/16 12:11:19;;;;;;;57.20;19.37;;;6.40;97.30;;;;;;5038623;28;20413;-92
2021/11/16 12:13:49;;;;;;;66.33;19.40;;;6.40;97.30;;;;;;5038133;28;20420;-91
2021/11/16 12:17:00;;;;;;;59.70;20.77;;;6.50;97.30;;;;;;5038347;28;20431;-92
2021/11/16 12:19:50;;;;;;;65.17;20.07;;;6.50;97.30;;;;;;4962826;28;20499;-92
2021/11/16 12:22:46;;;;;;;57.10;19.20;;;6.50;97.30;;;;;;4963771;28;20434;-92
2021/11/16 12:25:27;;;;;;;56.33;20.27;;;6.60;97.30;;;;;;4969181;28;20481;-92
2021/11/16 12:28:18;;;;;;;59.90;20.60;;;6.70;97.30;;;;;;4963037;28;20413;-92
2021/11/16 12:31:00;;;;;;;70.13;20.57;;;6.70;97.30;;;;;;4961828;28;20430;-92
2021/11/16 12:33:47;;;;;;;64.73;20.20;;;6.80;97.30;;;;;;4982696;28;20422;-92
2021/11/16 12:36:17;;;;;;;66.20;21.47;;;6.80;97.30;;;;;;5036285;28;20443;-92
2021/11/16 12:38:50;;;;;;;71.83;22.40;;;6.80;97.30;;;;;;5036554;28;20459;-92
2021/11/16 12:41:40;;;;;;;65.73;21.53;;;6.90;97.30;;;;;;5036820;28;20411;-93
2021/11/16 12:44:17;;;;;;;62.67;19.77;;;6.90;97.30;;;;;;5038197;28;20404;-92
2021/11/16 12:50:19;;;;;;;58.13;18.57;;;6.80;97.30;;;;;;5052010;28;20419;-92
2021/11/16 12:52:50;;;;;;;62.70;19.43;;;6.80;97.30;;;;;;5058996;28;20433;-92
2021/11/16 12:55:41;;;;;;;58.73;20.13;;;6.90;97.30;;;;;;5058706;28;20907;-92
2021/11/16 12:58:49;;;;;;;66.30;21.77;;;6.90;97.30;;;;;;5058375;28;20456;-92
2021/11/16 13:01:56;;;;;;;53.80;20.10;;;7.00;97.30;;;;;;5014789;28;20416;-92
2021/11/16 13:04:37;;;;;;;62.80;20.70;;;7.00;97.30;;;;;;5036565;28;20410;-92
2021/11/16 13:07:20;;;;;;;57.27;20.40;;;7.00;97.30;;;;;;5056091;28;20410;-92
2021/11/16 13:09:49;;;;;;;67.73;20.37;;;7.00;97.30;;;;;;5058216;28;20442;-92
2021/11/16 13:12:57;;;;;;;62.90;20.83;;;7.00;97.30;;;;;;5058088;28;20412;-92
2021/11/16 13:18:21;;;;;;;59.77;19.03;;;7.00;97.30;;;;;;5018835;28;20475;-93
2021/11/16 13:21:09;;;;;;;57.17;19.87;;;7.00;97.30;;;;;;5041011;28;20459;-92
2021/11/16 13:23:40;;;;;;;77.20;21.33;;;7.00;97.30;;;;;;5030351;28;20409;-92
2021/11/16 13:26:18;;;;;;;69.70;21.00;;;6.90;97.30;;;;;;5026764;28;20458;-92
2021/11/16 13:32:20;;;;;;;68.17;22.20;;;6.90;97.30;;;;;;5042113;28;20753;-92
2021/11/16 13:34:49;;;;;;;52.43;19.07;;;6.90;97.30;;;;;;5031366;28;20453;-92
2021/11/16 13:37:25;;;;;;;65.40;19.40;;;6.90;97.30;;;;;;5032689;28;20419;-93
2021/11/16 13:40:07;;;;;;;68.97;22.37;;;6.90;97.30;;;;;;5032791;28;20418;-90
2021/11/16 13:42:33;;;;;;;75.60;23.07;;;6.90;97.30;;;;;;5034433;28;20502;-92
2021/11/16 13:45:04;;;;;;;68.57;25.80;;;6.90;97.30;;;;;;5036312;28;20481;-91